Time;durP1;ratioP1;P1;durP2;ratioP2;P2;SDS_P1;SDS_P2;PMS_P1;PMS_P2;Temp;Humidity;BMP_temperature;BMP_pressure;BME280_temperature;BME280_humidity;BME280_pressure;Samples;Min_cycle;Max_cycle;Signal;HPM_P1;HPM_P2
2022/12/14 00:01:28;;;;;;;28.27;11.40;;;;;;;;;;5011100;28;20080;-60
2022/12/14 00:03:54;;;;;;;26.87;10.83;;;;;;;;;;5009442;28;20049;-60
2022/12/14 00:06:21;;;;;;;27.55;10.25;;;;;;;;;;5009543;28;20392;-60
2022/12/14 00:08:47;;;;;;;27.73;11.30;;;;;;;;;;5010831;28;20108;-60
2022/12/14 00:11:15;;;;;;;24.20;10.10;;;;;;;;;;5010633;28;20101;-60
2022/12/14 00:13:41;;;;;;;28.77;10.63;;;;;;;;;;5010408;28;20485;-60
2022/12/14 00:16:07;;;;;;;28.98;10.88;;;;;;;;;;5008362;28;20030;-60
2022/12/14 00:18:32;;;;;;;28.58;10.40;;;;;;;;;;5009381;28;20021;-60
2022/12/14 00:21:08;;;;;;;23.77;10.07;;;;;;;;;;5011452;28;20041;-60
2022/12/14 00:23:34;;;;;;;27.27;10.30;;;;;;;;;;5011227;28;20021;-60
2022/12/14 00:26:05;;;;;;;26.08;10.13;;;;;;;;;;5010301;28;20489;-60
2022/12/14 00:28:31;;;;;;;24.15;8.70;;;;;;;;;;5009032;28;20547;-63
2022/12/14 00:30:56;;;;;;;23.27;10.10;;;;;;;;;;5008899;28;20017;-60
2022/12/14 00:33:22;;;;;;;25.83;10.20;;;;;;;;;;5009763;28;20095;-61
2022/12/14 00:35:47;;;;;;;27.43;10.97;;;;;;;;;;5008929;28;20142;-62
2022/12/14 00:38:12;;;;;;;22.70;9.48;;;;;;;;;;5008777;28;20481;-61
2022/12/14 00:40:37;;;;;;;24.50;8.60;;;;;;;;;;5009667;28;20030;-60
2022/12/14 00:43:02;;;;;;;25.48;9.60;;;;;;;;;;5010576;28;20435;-60
2022/12/14 00:45:28;;;;;;;23.33;9.87;;;;;;;;;;5009274;28;20365;-60
2022/12/14 00:47:53;;;;;;;23.67;9.07;;;;;;;;;;5000093;28;20018;-60
2022/12/14 00:50:18;;;;;;;24.17;8.40;;;;;;;;;;5008659;28;20740;-60
2022/12/14 00:52:43;;;;;;;23.67;9.70;;;;;;;;;;5008478;28;20021;-60
2022/12/14 00:55:08;;;;;;;22.98;8.80;;;;;;;;;;5009982;28;20087;-60
2022/12/14 00:57:33;;;;;;;25.97;9.53;;;;;;;;;;5007352;28;20026;-60
2022/12/14 00:59:58;;;;;;;24.67;8.97;;;;;;;;;;5010141;28;20038;-61
2022/12/14 01:02:24;;;;;;;21.60;7.77;;;;;;;;;;5007369;28;20110;-61
2022/12/14 01:04:49;;;;;;;22.93;8.47;;;;;;;;;;5009207;28;20489;-60
2022/12/14 01:07:14;;;;;;;21.80;8.33;;;;;;;;;;5007460;28;20117;-61
2022/12/14 01:09:39;;;;;;;19.97;8.53;;;;;;;;;;5007989;28;20022;-61
2022/12/14 01:12:04;;;;;;;22.03;8.23;;;;;;;;;;5006765;28;20022;-60
2022/12/14 01:14:29;;;;;;;21.60;8.03;;;;;;;;;;5007950;28;20046;-60
2022/12/14 01:16:55;;;;;;;19.03;7.90;;;;;;;;;;5009635;28;20025;-60
2022/12/14 01:19:20;;;;;;;19.23;7.40;;;;;;;;;;5008442;28;20080;-60
2022/12/14 01:21:45;;;;;;;18.30;7.70;;;;;;;;;;5009117;28;20400;-60
2022/12/14 01:24:10;;;;;;;20.00;8.40;;;;;;;;;;5009696;28;20053;-61
2022/12/14 01:26:36;;;;;;;21.07;8.73;;;;;;;;;;5010708;28;20038;-60
2022/12/14 01:29:01;;;;;;;18.95;7.13;;;;;;;;;;5008221;28;20022;-61
2022/12/14 01:31:28;;;;;;;19.38;7.53;;;;;;;;;;5009064;28;20026;-61
2022/12/14 01:33:53;;;;;;;20.50;8.00;;;;;;;;;;5008991;28;20026;-61
2022/12/14 01:36:20;;;;;;;19.10;8.00;;;;;;;;;;5007885;28;20034;-61
2022/12/14 01:38:46;;;;;;;16.50;7.43;;;;;;;;;;5007108;28;20257;-60
2022/12/14 01:41:48;;;;;;;20.35;8.02;;;;;;;;;;5007486;28;20109;-62
2022/12/14 01:44:13;;;;;;;;;;;;;;;;;;4901031;29;20037;-61
2022/12/14 01:46:40;;;;;;;19.75;7.43;;;;;;;;;;4981883;28;19936;-61
2022/12/14 01:49:21;;;;;;;15.63;6.00;;;;;;;;;;5010083;28;20026;-62
2022/12/14 01:51:52;;;;;;;18.88;7.45;;;;;;;;;;5008135;28;20109;-62
2022/12/14 01:54:18;;;;;;;18.92;7.35;;;;;;;;;;5008468;28;20032;-60
2022/12/14 01:56:43;;;;;;;16.85;6.82;;;;;;;;;;5008720;28;20440;-61
2022/12/14 01:59:12;;;;;;;20.05;7.78;;;;;;;;;;5008378;28;20165;-62
2022/12/14 02:01:37;;;;;;;17.38;6.82;;;;;;;;;;5010301;28;20018;-61
2022/12/14 02:04:03;;;;;;;18.30;7.43;;;;;;;;;;5009266;28;20022;-60
2022/12/14 02:06:33;;;;;;;17.60;6.88;;;;;;;;;;5009588;28;20652;-60
2022/12/14 02:08:59;;;;;;;17.10;7.47;;;;;;;;;;5009077;28;20026;-61
2022/12/14 02:11:44;;;;;;;17.67;6.60;;;;;;;;;;4990836;28;20544;-60
2022/12/14 02:14:10;;;;;;;20.58;8.45;;;;;;;;;;4999502;28;20080;-61
2022/12/14 02:16:35;;;;;;;18.57;6.70;;;;;;;;;;5008638;28;20054;-59
2022/12/14 02:19:01;;;;;;;19.20;7.50;;;;;;;;;;5008623;28;20061;-59
2022/12/14 02:21:26;;;;;;;17.33;7.30;;;;;;;;;;5010398;28;20022;-60
2022/12/14 02:24:00;;;;;;;19.88;8.02;;;;;;;;;;5009663;28;20026;-60
2022/12/14 02:26:37;;;;;;;17.35;7.32;;;;;;;;;;5009326;28;20034;-60
2022/12/14 02:29:02;;;;;;;16.48;7.15;;;;;;;;;;5008262;28;20046;-61
2022/12/14 02:31:43;;;;;;;19.23;7.13;;;;;;;;;;5008581;28;20060;-60
2022/12/14 02:34:24;;;;;;;17.13;7.63;;;;;;;;;;5007676;28;20564;-60
2022/12/14 02:36:50;;;;;;;21.30;8.35;;;;;;;;;;5008452;28;20060;-59
2022/12/14 02:39:27;;;;;;;17.30;6.75;;;;;;;;;;5007773;28;20041;-60
2022/12/14 02:42:04;;;;;;;19.27;7.53;;;;;;;;;;5001946;28;20469;-60
2022/12/14 02:44:32;;;;;;;19.63;7.55;;;;;;;;;;5007965;28;20080;-60
2022/12/14 02:47:17;;;;;;;18.70;6.68;;;;;;;;;;5005972;28;20065;-61
2022/12/14 02:49:42;;;;;;;20.75;7.43;;;;;;;;;;5003947;28;20919;-60
2022/12/14 02:52:14;;;;;;;20.23;8.05;;;;;;;;;;5012740;28;20049;-61
2022/12/14 02:54:52;;;;;;;18.50;7.93;;;;;;;;;;5011693;28;20038;-60
2022/12/14 02:57:20;;;;;;;19.90;7.78;;;;;;;;;;5010815;28;20101;-60
2022/12/14 02:59:47;;;;;;;16.65;7.15;;;;;;;;;;5011622;28;20022;-60
2022/12/14 03:02:13;;;;;;;20.73;7.65;;;;;;;;;;5012836;28;20072;-62
2022/12/14 03:04:44;;;;;;;19.25;8.05;;;;;;;;;;5013247;28;20014;-61
2022/12/14 03:07:28;;;;;;;21.45;7.95;;;;;;;;;;5011664;28;20029;-61
2022/12/14 03:09:53;;;;;;;19.05;7.35;;;;;;;;;;5010806;28;20029;-61
2022/12/14 03:12:19;;;;;;;19.40;7.97;;;;;;;;;;5010623;28;20029;-61
2022/12/14 03:14:46;;;;;;;19.15;7.78;;;;;;;;;;5010938;28;20041;-61
2022/12/14 03:17:16;;;;;;;20.85;7.95;;;;;;;;;;5009885;28;20476;-61
2022/12/14 03:19:46;;;;;;;22.13;7.47;;;;;;;;;;4998147;28;20076;-61
2022/12/14 03:22:22;;;;;;;18.92;6.80;;;;;;;;;;5013062;28;20068;-60
2022/12/14 03:24:51;;;;;;;16.80;6.95;;;;;;;;;;5012862;28;20025;-60
2022/12/14 03:27:16;;;;;;;19.50;7.75;;;;;;;;;;5012002;28;20022;-61
2022/12/14 03:29:45;;;;;;;18.23;7.47;;;;;;;;;;5011548;28;20014;-60
2022/12/14 03:32:12;;;;;;;21.30;8.43;;;;;;;;;;5010950;28;20021;-61
2022/12/14 03:35:07;;;;;;;21.02;7.90;;;;;;;;;;5011819;28;20026;-61
2022/12/14 03:37:41;;;;;;;18.23;7.40;;;;;;;;;;4993747;28;20091;-60
2022/12/14 03:40:07;;;;;;;19.05;7.90;;;;;;;;;;5010819;28;20024;-60
2022/12/14 03:42:37;;;;;;;19.10;7.00;;;;;;;;;;5010544;28;20476;-59
2022/12/14 03:45:09;;;;;;;17.30;6.95;;;;;;;;;;5011390;28;20580;-59
2022/12/14 03:47:37;;;;;;;19.52;8.40;;;;;;;;;;5012342;28;20050;-59
2022/12/14 03:50:06;;;;;;;19.63;7.97;;;;;;;;;;5011496;28;20543;-60
2022/12/14 03:52:34;;;;;;;19.63;7.85;;;;;;;;;;5011389;28;20026;-60
2022/12/14 03:55:18;;;;;;;19.08;8.23;;;;;;;;;;5011703;28;20034;-60
2022/12/14 03:58:02;;;;;;;18.10;7.50;;;;;;;;;;5010640;28;20069;-60
2022/12/14 04:00:28;;;;;;;20.85;8.68;;;;;;;;;;5010610;28;20152;-60
2022/12/14 04:03:00;;;;;;;20.90;7.35;;;;;;;;;;5011915;28;20435;-60
2022/12/14 04:05:28;;;;;;;20.40;8.20;;;;;;;;;;5012124;28;20057;-60
2022/12/14 04:08:01;;;;;;;17.60;6.95;;;;;;;;;;5012155;28;20105;-61
2022/12/14 04:19:00;;;;;;;20.42;8.02;;;;;;;;;;5007808;28;20052;-60
2022/12/14 04:21:33;;;;;;;21.35;8.38;;;;;;;;;;5011530;28;20446;-60
2022/12/14 04:27:13;;;;;;;20.40;7.57;;;;;;;;;;5007187;28;20036;-60
2022/12/14 04:29:55;;;;;;;16.80;7.82;;;;;;;;;;5001412;28;20030;-60
2022/12/14 04:32:46;;;;;;;18.95;8.00;;;;;;;;;;5007099;28;20157;-61
2022/12/14 04:35:17;;;;;;;17.45;7.80;;;;;;;;;;4969100;28;20065;-61
2022/12/14 04:37:44;;;;;;;19.38;8.23;;;;;;;;;;5009524;28;20026;-61
2022/12/14 04:40:39;;;;;;;20.58;8.70;;;;;;;;;;5008549;28;20040;-60
2022/12/14 04:43:07;;;;;;;20.75;8.70;;;;;;;;;;4995074;28;20125;-61
2022/12/14 04:45:34;;;;;;;23.92;9.20;;;;;;;;;;5011348;28;20054;-60
2022/12/14 04:48:09;;;;;;;29.60;11.00;;;;;;;;;;5010379;28;20036;-60
2022/12/14 04:50:36;;;;;;;31.70;12.32;;;;;;;;;;5010337;28;20113;-60
2022/12/14 04:53:19;;;;;;;27.02;9.75;;;;;;;;;;5008477;28;20026;-61
2022/12/14 04:55:57;;;;;;;23.33;9.40;;;;;;;;;;5009907;28;20029;-61
2022/12/14 04:58:24;;;;;;;20.63;8.32;;;;;;;;;;4991619;28;20034;-61
2022/12/14 05:00:57;;;;;;;18.35;7.97;;;;;;;;;;5007466;28;20101;-61
2022/12/14 05:03:28;;;;;;;20.13;7.35;;;;;;;;;;5007881;28;20026;-61
2022/12/14 05:06:05;;;;;;;19.92;8.77;;;;;;;;;;5001989;28;20050;-61
2022/12/14 05:09:00;;;;;;;19.75;7.90;;;;;;;;;;5008799;28;20018;-61
2022/12/14 05:11:30;;;;;;;17.00;7.32;;;;;;;;;;4989815;28;20348;-61
2022/12/14 05:13:55;;;;;;;19.52;7.40;;;;;;;;;;5008203;28;20048;-61
2022/12/14 05:16:21;;;;;;;18.63;8.00;;;;;;;;;;5007984;28;20026;-60
2022/12/14 05:18:47;;;;;;;20.40;7.93;;;;;;;;;;5009286;28;20021;-62
2022/12/14 05:21:45;;;;;;;20.03;8.87;;;;;;;;;;5009693;28;20017;-61
2022/12/14 05:23:59;;;;;;;19.17;7.88;;;;;;;;;;5009886;28;20052;-62
2022/12/14 05:26:24;;;;;;;20.55;8.65;;;;;;;;;;5007840;28;20022;-62
2022/12/14 05:28:49;;;;;;;22.67;8.30;;;;;;;;;;5003967;28;20028;-62
2022/12/14 05:31:15;;;;;;;18.87;7.43;;;;;;;;;;5002011;28;20502;-61
2022/12/14 05:33:40;;;;;;;19.88;7.38;;;;;;;;;;4999391;28;20024;-61
2022/12/14 05:36:05;;;;;;;23.33;8.43;;;;;;;;;;5003862;28;20034;-62
2022/12/14 05:38:31;;;;;;;18.52;7.78;;;;;;;;;;4992546;28;20110;-62
2022/12/14 05:40:56;;;;;;;19.30;8.43;;;;;;;;;;5006143;28;20068;-62
2022/12/14 05:43:21;;;;;;;19.77;7.77;;;;;;;;;;5006631;28;20153;-62
2022/12/14 05:45:46;;;;;;;18.73;7.00;;;;;;;;;;5006487;28;20460;-62
2022/12/14 05:48:11;;;;;;;18.27;8.30;;;;;;;;;;5004386;28;20059;-62
2022/12/14 05:50:36;;;;;;;21.13;7.78;;;;;;;;;;5006205;28;20540;-62
2022/12/14 05:53:01;;;;;;;16.17;6.77;;;;;;;;;;5006408;28;20025;-63
2022/12/14 05:55:27;;;;;;;20.53;8.23;;;;;;;;;;5003575;28;20036;-61
2022/12/14 05:57:52;;;;;;;18.13;7.57;;;;;;;;;;5004942;28;20026;-61
2022/12/14 06:00:17;;;;;;;17.27;6.73;;;;;;;;;;5006138;28;20091;-61
2022/12/14 06:02:42;;;;;;;22.33;8.87;;;;;;;;;;5006912;28;20362;-66
2022/12/14 06:05:08;;;;;;;18.63;7.97;;;;;;;;;;5007078;28;20025;-66
2022/12/14 06:07:33;;;;;;;22.50;7.60;;;;;;;;;;5006608;28;20030;-66
2022/12/14 06:09:58;;;;;;;17.50;7.00;;;;;;;;;;5005655;28;20790;-68
2022/12/14 06:12:23;;;;;;;17.60;6.93;;;;;;;;;;5004271;28;20053;-67
2022/12/14 06:14:48;;;;;;;20.30;7.73;;;;;;;;;;5006273;28;21117;-68
2022/12/14 06:17:13;;;;;;;16.67;6.73;;;;;;;;;;5004683;28;20435;-68
2022/12/14 06:19:39;;;;;;;17.50;6.47;;;;;;;;;;5006506;28;20030;-67
2022/12/14 06:22:04;;;;;;;20.20;7.73;;;;;;;;;;5010100;28;20006;-67
2022/12/14 06:24:29;;;;;;;17.80;7.50;;;;;;;;;;5008590;28;20550;-69
2022/12/14 06:26:54;;;;;;;16.63;7.47;;;;;;;;;;5012133;28;20017;-68
2022/12/14 06:29:19;;;;;;;17.03;7.70;;;;;;;;;;5012363;28;20022;-68
2022/12/14 06:31:45;;;;;;;18.83;6.90;;;;;;;;;;5001495;28;20030;-67
2022/12/14 06:34:10;;;;;;;17.45;6.80;;;;;;;;;;4994295;28;20022;-68
2022/12/14 06:36:36;;;;;;;17.27;7.23;;;;;;;;;;4994689;28;20105;-66
2022/12/14 06:39:04;;;;;;;17.52;7.13;;;;;;;;;;4994340;28;20029;-66
2022/12/14 06:41:29;;;;;;;19.85;7.78;;;;;;;;;;4994317;28;20384;-67
2022/12/14 06:43:55;;;;;;;20.00;7.90;;;;;;;;;;4994252;28;20100;-68
2022/12/14 06:46:21;;;;;;;18.08;6.97;;;;;;;;;;4994244;28;20049;-69
2022/12/14 06:48:51;;;;;;;16.20;6.07;;;;;;;;;;4994023;28;20025;-67
2022/12/14 06:51:16;;;;;;;18.85;7.45;;;;;;;;;;4994104;28;20027;-69
2022/12/14 06:53:41;;;;;;;18.13;6.90;;;;;;;;;;5002856;28;20354;-69
2022/12/14 06:56:07;;;;;;;19.37;7.43;;;;;;;;;;5008122;28;20037;-67
2022/12/14 06:58:32;;;;;;;16.05;7.03;;;;;;;;;;5010527;28;20542;-68
2022/12/14 07:01:04;;;;;;;17.67;6.85;;;;;;;;;;5009974;28;20025;-68
2022/12/14 07:03:30;;;;;;;20.77;7.63;;;;;;;;;;5012219;28;20049;-67
2022/12/14 07:05:56;;;;;;;18.65;7.28;;;;;;;;;;5012173;28;20473;-67
2022/12/14 07:08:21;;;;;;;18.40;7.10;;;;;;;;;;5013137;28;20022;-67
2022/12/14 07:10:46;;;;;;;17.70;7.03;;;;;;;;;;5008813;28;20032;-67
2022/12/14 07:13:11;;;;;;;18.43;7.83;;;;;;;;;;5012166;28;20030;-68
2022/12/14 07:15:38;;;;;;;17.23;6.77;;;;;;;;;;5011168;28;20046;-68
2022/12/14 07:18:03;;;;;;;18.60;7.20;;;;;;;;;;5011046;28;20026;-68
2022/12/14 07:20:28;;;;;;;15.80;6.73;;;;;;;;;;5013164;28;20441;-68
2022/12/14 07:22:54;;;;;;;16.27;6.53;;;;;;;;;;5013200;28;20026;-68
2022/12/14 07:25:19;;;;;;;18.97;7.47;;;;;;;;;;5011082;28;20109;-67
2022/12/14 07:27:44;;;;;;;14.13;6.53;;;;;;;;;;5011123;28;20139;-68
2022/12/14 07:30:10;;;;;;;18.27;7.67;;;;;;;;;;5012627;28;20026;-67
2022/12/14 07:32:35;;;;;;;21.15;7.75;;;;;;;;;;5012969;28;20010;-68
2022/12/14 07:35:00;;;;;;;16.77;7.40;;;;;;;;;;5010055;28;20559;-68
2022/12/14 07:37:26;;;;;;;18.40;7.47;;;;;;;;;;5005749;28;20125;-67
2022/12/14 07:39:51;;;;;;;17.40;7.47;;;;;;;;;;5010961;28;20014;-67
2022/12/14 07:42:16;;;;;;;16.60;7.18;;;;;;;;;;5011371;28;20376;-68
2022/12/14 07:44:41;;;;;;;16.50;6.70;;;;;;;;;;5008070;28;20021;-68
2022/12/14 07:47:06;;;;;;;19.67;7.57;;;;;;;;;;5005630;28;20757;-68
2022/12/14 07:49:31;;;;;;;17.70;7.10;;;;;;;;;;5008897;28;20109;-68
2022/12/14 07:51:57;;;;;;;18.80;7.07;;;;;;;;;;5009761;28;20432;-68
2022/12/14 07:54:23;;;;;;;17.03;7.23;;;;;;;;;;5004659;28;20042;-62
2022/12/14 07:56:49;;;;;;;13.68;6.20;;;;;;;;;;5005812;28;20022;-62
2022/12/14 07:59:15;;;;;;;18.70;7.28;;;;;;;;;;5009942;28;20041;-62
2022/12/14 08:01:41;;;;;;;16.83;7.27;;;;;;;;;;5012236;28;20036;-62
2022/12/14 08:04:11;;;;;;;16.40;6.53;;;;;;;;;;5011966;28;20431;-62
2022/12/14 08:06:37;;;;;;;20.58;7.68;;;;;;;;;;5012032;28;20028;-65
2022/12/14 08:09:02;;;;;;;18.67;7.28;;;;;;;;;;5011793;28;20018;-63
2022/12/14 08:11:28;;;;;;;17.88;7.28;;;;;;;;;;5006104;28;20030;-61
2022/12/14 08:13:57;;;;;;;17.27;6.88;;;;;;;;;;4990237;28;20125;-62
2022/12/14 08:16:22;;;;;;;17.67;6.93;;;;;;;;;;4992615;28;20114;-62
2022/12/14 08:18:48;;;;;;;15.55;6.45;;;;;;;;;;4992454;28;20113;-62
2022/12/14 08:21:14;;;;;;;17.42;7.43;;;;;;;;;;4992519;28;20027;-62
2022/12/14 08:23:40;;;;;;;15.35;6.70;;;;;;;;;;4992792;28;20026;-62
2022/12/14 08:26:06;;;;;;;18.00;6.70;;;;;;;;;;4992452;28;20443;-62
2022/12/14 08:28:31;;;;;;;18.13;7.32;;;;;;;;;;5004031;28;20022;-62
2022/12/14 08:30:57;;;;;;;18.52;7.47;;;;;;;;;;5011741;28;20412;-62
2022/12/14 08:33:23;;;;;;;15.98;7.32;;;;;;;;;;5011915;28;20022;-62
2022/12/14 08:35:48;;;;;;;15.93;7.38;;;;;;;;;;5012015;28;20132;-62
2022/12/14 08:38:14;;;;;;;15.25;6.78;;;;;;;;;;5012156;28;20033;-62
2022/12/14 08:40:39;;;;;;;16.98;7.93;;;;;;;;;;5011805;28;20030;-62
2022/12/14 08:43:05;;;;;;;16.63;7.03;;;;;;;;;;5011500;28;20032;-62
2022/12/14 08:45:30;;;;;;;18.23;7.85;;;;;;;;;;5011253;28;20036;-62
2022/12/14 08:47:56;;;;;;;16.73;7.57;;;;;;;;;;5011829;28;20156;-62
2022/12/14 08:50:22;;;;;;;17.45;7.47;;;;;;;;;;5011664;28;20367;-62
2022/12/14 08:52:47;;;;;;;17.73;6.83;;;;;;;;;;5011932;28;20026;-62
2022/12/14 08:55:12;;;;;;;16.85;7.82;;;;;;;;;;5003110;28;20105;-62
2022/12/14 08:57:38;;;;;;;18.88;7.93;;;;;;;;;;4991733;28;20026;-62
2022/12/14 09:00:03;;;;;;;18.93;7.73;;;;;;;;;;4991572;28;20026;-63
2022/12/14 09:02:28;;;;;;;18.05;7.88;;;;;;;;;;4991874;28;20022;-62
2022/12/14 09:04:54;;;;;;;19.10;7.63;;;;;;;;;;4991919;28;20025;-62
2022/12/14 09:07:19;;;;;;;20.23;8.20;;;;;;;;;;4991952;28;20050;-63
2022/12/14 09:09:44;;;;;;;17.50;7.53;;;;;;;;;;4991156;28;20010;-62
2022/12/14 09:12:09;;;;;;;17.83;7.33;;;;;;;;;;4991079;28;20030;-62
2022/12/14 09:14:34;;;;;;;19.53;8.17;;;;;;;;;;4990826;28;20065;-62
2022/12/14 09:17:00;;;;;;;17.75;8.13;;;;;;;;;;4991173;28;20037;-63
2022/12/14 09:19:26;;;;;;;18.92;8.32;;;;;;;;;;4991874;28;20113;-63
2022/12/14 09:21:51;;;;;;;19.05;8.63;;;;;;;;;;4991563;28;20089;-63
2022/12/14 09:24:16;;;;;;;24.07;8.83;;;;;;;;;;4991269;28;20100;-64
2022/12/14 09:26:41;;;;;;;20.00;9.03;;;;;;;;;;4994838;28;20026;-63
2022/12/14 09:29:11;;;;;;;19.07;8.37;;;;;;;;;;5011067;28;20468;-64
2022/12/14 09:31:36;;;;;;;19.27;8.43;;;;;;;;;;5010962;28;20499;-63
2022/12/14 09:34:02;;;;;;;18.60;8.18;;;;;;;;;;5010708;28;20022;-62
2022/12/14 09:36:28;;;;;;;17.35;8.10;;;;;;;;;;5011005;28;20029;-62
2022/12/14 09:38:57;;;;;;;17.57;7.70;;;;;;;;;;5010999;28;20030;-61
2022/12/14 09:41:34;;;;;;;20.02;8.65;;;;;;;;;;5010577;28;20146;-61
2022/12/14 09:43:59;;;;;;;17.73;7.88;;;;;;;;;;5010761;28;20026;-61
2022/12/14 09:46:40;;;;;;;20.40;8.13;;;;;;;;;;5010628;28;20021;-61
2022/12/14 09:49:12;;;;;;;18.67;8.27;;;;;;;;;;5010832;28;20018;-62
2022/12/14 09:51:37;;;;;;;19.10;7.93;;;;;;;;;;5010670;28;20028;-64
2022/12/14 09:54:05;;;;;;;20.03;8.87;;;;;;;;;;5009059;28;20026;-61
2022/12/14 09:56:31;;;;;;;19.65;8.15;;;;;;;;;;5010658;28;20033;-61
2022/12/14 09:58:58;;;;;;;20.65;8.93;;;;;;;;;;5014552;28;20029;-62
2022/12/14 10:01:38;;;;;;;20.42;9.18;;;;;;;;;;5011836;28;20026;-62
2022/12/14 10:04:09;;;;;;;22.20;9.50;;;;;;;;;;5011441;28;20025;-62
2022/12/14 10:06:41;;;;;;;21.10;8.75;;;;;;;;;;5014219;28;20401;-62
2022/12/14 10:09:13;;;;;;;19.48;8.13;;;;;;;;;;5013783;28;20097;-61
2022/12/14 10:11:48;;;;;;;22.02;8.98;;;;;;;;;;5014284;28;20026;-61
2022/12/14 10:14:25;;;;;;;18.40;8.38;;;;;;;;;;5014200;28;20121;-62
2022/12/14 10:17:08;;;;;;;20.45;8.85;;;;;;;;;;5012658;28;20041;-62
2022/12/14 10:19:37;;;;;;;20.88;8.65;;;;;;;;;;5014718;28;20392;-63
2022/12/14 10:22:12;;;;;;;20.48;9.48;;;;;;;;;;5014159;28;20073;-62
2022/12/14 10:24:46;;;;;;;20.38;8.50;;;;;;;;;;5014480;28;20488;-62
2022/12/14 10:27:22;;;;;;;19.67;8.38;;;;;;;;;;5013985;28;20032;-61
2022/12/14 10:30:07;;;;;;;23.05;9.43;;;;;;;;;;5014231;28;20025;-61
2022/12/14 10:32:37;;;;;;;21.70;9.20;;;;;;;;;;5013973;28;20017;-60
2022/12/14 10:35:11;;;;;;;18.90;8.60;;;;;;;;;;5014079;28;20033;-62
2022/12/14 10:37:39;;;;;;;20.15;9.52;;;;;;;;;;5014208;28;20029;-62
2022/12/14 10:40:13;;;;;;;20.85;9.45;;;;;;;;;;5013687;28;20030;-61
2022/12/14 10:42:44;;;;;;;22.15;9.00;;;;;;;;;;5014377;28;20384;-61
2022/12/14 10:45:33;;;;;;;21.50;8.65;;;;;;;;;;5013719;28;20457;-62
2022/12/14 10:48:13;;;;;;;20.60;9.80;;;;;;;;;;5013971;28;20022;-62
2022/12/14 10:50:38;;;;;;;22.48;9.18;;;;;;;;;;5013969;28;20481;-62
2022/12/14 10:53:04;;;;;;;20.55;8.73;;;;;;;;;;5013743;28;20534;-62
2022/12/14 10:55:32;;;;;;;22.15;9.40;;;;;;;;;;5013846;28;20033;-62
2022/12/14 10:57:57;;;;;;;19.40;8.80;;;;;;;;;;5013776;28;20029;-60
2022/12/14 11:00:23;;;;;;;19.13;9.00;;;;;;;;;;5013600;28;20503;-61
2022/12/14 11:02:50;;;;;;;20.57;9.90;;;;;;;;;;5013479;28;20062;-62
2022/12/14 11:05:22;;;;;;;20.08;9.52;;;;;;;;;;5013544;28;20049;-62
2022/12/14 11:07:48;;;;;;;19.77;8.85;;;;;;;;;;5013657;28;20388;-61
2022/12/14 11:10:18;;;;;;;20.55;8.82;;;;;;;;;;5013346;28;20085;-62
2022/12/14 11:12:52;;;;;;;20.20;9.20;;;;;;;;;;5013350;28;20029;-62
2022/12/14 11:15:39;;;;;;;20.77;9.43;;;;;;;;;;5013184;28;20045;-61
2022/12/14 11:18:10;;;;;;;18.55;8.05;;;;;;;;;;5013413;28;20042;-62
2022/12/14 11:20:35;;;;;;;19.45;8.95;;;;;;;;;;5013220;28;20361;-62
2022/12/14 11:23:05;;;;;;;22.50;10.10;;;;;;;;;;5013305;28;20029;-61
2022/12/14 11:25:41;;;;;;;21.10;8.88;;;;;;;;;;5013023;28;20041;-62
2022/12/14 11:28:25;;;;;;;21.60;9.35;;;;;;;;;;5010594;28;20431;-62
2022/12/14 11:30:52;;;;;;;21.20;9.75;;;;;;;;;;5009895;28;20109;-62
2022/12/14 11:33:17;;;;;;;20.55;8.90;;;;;;;;;;5009099;28;20125;-60
2022/12/14 11:35:48;;;;;;;24.90;9.97;;;;;;;;;;5010809;28;20046;-61
2022/12/14 11:38:14;;;;;;;22.45;9.90;;;;;;;;;;5012835;28;20025;-62
2022/12/14 11:40:39;;;;;;;22.83;10.10;;;;;;;;;;5012840;28;20056;-60
2022/12/14 11:43:14;;;;;;;20.65;9.65;;;;;;;;;;5012727;28;20413;-61
2022/12/14 11:45:40;;;;;;;22.60;10.20;;;;;;;;;;5012866;28;20030;-61
2022/12/14 11:48:09;;;;;;;24.10;10.47;;;;;;;;;;5012410;28;20022;-61
2022/12/14 11:50:34;;;;;;;21.88;9.93;;;;;;;;;;5012202;28;20477;-62
2022/12/14 11:53:05;;;;;;;23.80;10.33;;;;;;;;;;5012511;28;20018;-61
2022/12/14 11:55:31;;;;;;;24.02;9.95;;;;;;;;;;4999134;28;20026;-61
2022/12/14 11:57:58;;;;;;;25.15;10.60;;;;;;;;;;4993051;28;20049;-61
2022/12/14 12:00:28;;;;;;;24.20;10.32;;;;;;;;;;4992703;28;20024;-61
2022/12/14 12:03:11;;;;;;;23.85;10.38;;;;;;;;;;4992113;28;20065;-61
2022/12/14 12:05:41;;;;;;;24.90;10.35;;;;;;;;;;4992695;28;20494;-62
2022/12/14 12:08:15;;;;;;;21.90;9.63;;;;;;;;;;4992709;28;20038;-62
2022/12/14 12:10:42;;;;;;;22.50;10.40;;;;;;;;;;4992723;28;20030;-61
2022/12/14 12:13:19;;;;;;;23.60;10.70;;;;;;;;;;4992422;28;20073;-61
2022/12/14 12:15:49;;;;;;;25.40;11.52;;;;;;;;;;4990973;28;20492;-61
2022/12/14 12:18:35;;;;;;;23.35;10.05;;;;;;;;;;4992466;28;20469;-62
2022/12/14 12:21:03;;;;;;;24.65;10.68;;;;;;;;;;4992185;28;20061;-60
2022/12/14 12:23:34;;;;;;;24.92;10.63;;;;;;;;;;4992180;28;20026;-60
2022/12/14 12:26:04;;;;;;;22.15;10.18;;;;;;;;;;5002368;28;20026;-61
2022/12/14 12:28:31;;;;;;;25.13;10.77;;;;;;;;;;5012208;28;20025;-60
2022/12/14 12:31:01;;;;;;;24.33;10.75;;;;;;;;;;5011926;28;20045;-60
2022/12/14 12:33:30;;;;;;;22.48;9.85;;;;;;;;;;5011912;28;20022;-61
2022/12/14 12:35:58;;;;;;;23.88;10.80;;;;;;;;;;5012034;28;20026;-61
2022/12/14 12:38:26;;;;;;;22.50;9.00;;;;;;;;;;5011730;28;20476;-61
2022/12/14 12:40:58;;;;;;;22.52;10.10;;;;;;;;;;5011566;28;20057;-62
2022/12/14 12:43:27;;;;;;;24.52;10.23;;;;;;;;;;5011700;28;20026;-61
2022/12/14 12:46:01;;;;;;;25.42;10.32;;;;;;;;;;5011836;28;20050;-61
2022/12/14 12:48:31;;;;;;;25.35;10.80;;;;;;;;;;5011663;28;21231;-63
2022/12/14 12:51:00;;;;;;;23.42;9.85;;;;;;;;;;5011196;28;20565;-62
2022/12/14 12:53:29;;;;;;;24.35;10.15;;;;;;;;;;4993144;28;20086;-61
2022/12/14 12:55:57;;;;;;;24.63;9.77;;;;;;;;;;4992283;28;20034;-61
2022/12/14 12:58:25;;;;;;;24.00;11.05;;;;;;;;;;4991176;28;20034;-62
2022/12/14 13:00:53;;;;;;;27.55;11.07;;;;;;;;;;5009449;28;20057;-61
2022/12/14 13:03:24;;;;;;;26.95;10.43;;;;;;;;;;5010755;28;20018;-61
2022/12/14 13:05:50;;;;;;;26.17;11.38;;;;;;;;;;5010893;28;20030;-61
2022/12/14 13:08:22;;;;;;;25.08;10.30;;;;;;;;;;5010718;28;20018;-61
2022/12/14 13:10:48;;;;;;;28.23;11.27;;;;;;;;;;5011073;28;20018;-61
2022/12/14 13:13:20;;;;;;;25.40;11.45;;;;;;;;;;5010775;28;20384;-61
2022/12/14 13:15:47;;;;;;;27.55;10.70;;;;;;;;;;5009541;28;20532;-60
2022/12/14 13:18:24;;;;;;;26.05;10.88;;;;;;;;;;5011167;28;20069;-63
2022/12/14 13:20:49;;;;;;;25.90;10.70;;;;;;;;;;5011078;28;20100;-62
2022/12/14 13:23:15;;;;;;;27.15;11.75;;;;;;;;;;5011018;28;20068;-61
2022/12/14 13:25:48;;;;;;;29.55;12.40;;;;;;;;;;5010955;28;20095;-60
2022/12/14 13:28:31;;;;;;;27.65;11.68;;;;;;;;;;5010771;28;20080;-61
2022/12/14 13:31:02;;;;;;;27.77;11.38;;;;;;;;;;5009379;28;20029;-61
2022/12/14 13:33:44;;;;;;;27.85;12.05;;;;;;;;;;5010419;28;20030;-62
2022/12/14 13:36:24;;;;;;;30.13;12.15;;;;;;;;;;5007526;28;20026;-62
2022/12/14 13:39:05;;;;;;;28.30;11.57;;;;;;;;;;5001390;28;20369;-61
2022/12/14 13:41:34;;;;;;;28.13;12.48;;;;;;;;;;5010412;28;20037;-62
2022/12/14 13:44:15;;;;;;;27.17;11.70;;;;;;;;;;5010716;28;20053;-61
2022/12/14 13:46:40;;;;;;;27.17;11.27;;;;;;;;;;5010785;28;20076;-62
2022/12/14 13:49:07;;;;;;;27.38;11.40;;;;;;;;;;5008696;28;20026;-62
2022/12/14 13:51:37;;;;;;;29.65;11.95;;;;;;;;;;5010237;28;20076;-62
2022/12/14 13:54:04;;;;;;;27.15;11.30;;;;;;;;;;5008748;28;20049;-62
2022/12/14 13:56:30;;;;;;;29.42;11.57;;;;;;;;;;5010362;28;20030;-62
2022/12/14 13:58:56;;;;;;;28.10;11.57;;;;;;;;;;5013333;28;20033;-61
2022/12/14 14:01:40;;;;;;;30.83;12.20;;;;;;;;;;5029663;28;20113;-61
2022/12/14 14:04:14;;;;;;;28.83;11.65;;;;;;;;;;5008953;28;20403;-61
2022/12/14 14:06:40;;;;;;;30.70;12.35;;;;;;;;;;5005325;28;20107;-62
2022/12/14 14:09:24;;;;;;;30.27;11.55;;;;;;;;;;5006505;28;20400;-61
2022/12/14 14:12:01;;;;;;;28.95;11.20;;;;;;;;;;5010441;28;20097;-66
2022/12/14 14:14:32;;;;;;;28.17;10.60;;;;;;;;;;5009433;28;20053;-62
2022/12/14 14:17:00;;;;;;;29.25;11.63;;;;;;;;;;5009016;28;20056;-61
2022/12/14 14:19:26;;;;;;;29.88;12.35;;;;;;;;;;5003121;28;20029;-62
2022/12/14 14:22:10;;;;;;;27.55;11.38;;;;;;;;;;5003030;28;20034;-61
2022/12/14 14:24:53;;;;;;;31.52;11.85;;;;;;;;;;5010440;28;20079;-60
2022/12/14 14:27:20;;;;;;;32.35;12.73;;;;;;;;;;5010316;28;20050;-60
2022/12/14 14:29:46;;;;;;;29.60;12.75;;;;;;;;;;5008942;28;20022;-61
2022/12/14 14:32:29;;;;;;;30.98;13.07;;;;;;;;;;5009762;28;20014;-60
2022/12/14 14:34:55;;;;;;;30.58;12.50;;;;;;;;;;5010341;28;20362;-60
2022/12/14 14:37:20;;;;;;;30.97;13.07;;;;;;;;;;5010243;28;20025;-61
2022/12/14 14:40:03;;;;;;;30.73;12.43;;;;;;;;;;5007595;28;20437;-60
2022/12/14 14:42:31;;;;;;;27.83;11.30;;;;;;;;;;5005544;28;20722;-60
2022/12/14 14:45:07;;;;;;;31.08;13.02;;;;;;;;;;5013987;28;20018;-60
2022/12/14 14:47:36;;;;;;;31.00;12.55;;;;;;;;;;5013640;28;20487;-61
2022/12/14 14:50:22;;;;;;;27.55;11.63;;;;;;;;;;5012130;28;20026;-61